Time;durP1;ratioP1;P1;durP2;ratioP2;P2;SDS_P1;SDS_P2;PMS_P1;PMS_P2;Temp;Humidity;BMP_temperature;BMP_pressure;BME280_temperature;BME280_humidity;BME280_pressure;Samples;Min_cycle;Max_cycle;Signal;HPM_P1;HPM_P2
2021/08/20 06:38:04;;;;;;;5.25;3.25;;;;;;;;;;5406844;23;20407;-82
2021/08/20 06:40:30;;;;;;;5.95;3.10;;;;;;;;;;4939067;29;20039;-81
2021/08/20 06:42:55;;;;;;;4.05;2.70;;;;;;;;;;4939153;29;20426;-82
2021/08/20 06:45:21;;;;;;;9.40;3.88;;;;;;;;;;4939213;29;20427;-81
2021/08/20 06:47:46;;;;;;;19.13;4.68;;;;;;;;;;4938753;29;20458;-81
2021/08/20 06:50:11;;;;;;;8.68;4.07;;;;;;;;;;4938726;29;20039;-81
2021/08/20 06:52:37;;;;;;;13.90;4.18;;;;;;;;;;4938811;29;20028;-86
2021/08/20 06:55:03;;;;;;;10.80;3.45;;;;;;;;;;4938889;29;20410;-85
2021/08/20 06:57:29;;;;;;;6.00;3.15;;;;;;;;;;4921569;29;20134;-81
2021/08/20 06:59:54;;;;;;;5.40;3.20;;;;;;;;;;4938876;29;20035;-82
2021/08/20 07:02:19;;;;;;;5.38;3.35;;;;;;;;;;4938683;29;20059;-82
2021/08/20 07:04:45;;;;;;;9.05;3.50;;;;;;;;;;4938429;29;20023;-86
2021/08/20 07:07:10;;;;;;;7.07;3.60;;;;;;;;;;4938596;29;20489;-80
2021/08/20 07:09:36;;;;;;;5.22;3.25;;;;;;;;;;4938463;29;20441;-77
2021/08/20 07:12:01;;;;;;;8.27;3.28;;;;;;;;;;4938566;29;20155;-86
2021/08/20 07:14:27;;;;;;;6.22;3.42;;;;;;;;;;4938544;29;20499;-92
2021/08/20 07:16:52;;;;;;;7.70;2.95;;;;;;;;;;4938396;29;20030;-85
2021/08/20 07:19:18;;;;;;;4.03;3.00;;;;;;;;;;4938267;29;20378;-85
2021/08/20 07:21:43;;;;;;;5.75;2.95;;;;;;;;;;4938257;29;20087;-85
2021/08/20 07:24:08;;;;;;;4.97;2.95;;;;;;;;;;4938204;29;20050;-85
2021/08/20 07:26:34;;;;;;;4.03;3.10;;;;;;;;;;4938363;29;20487;-79
2021/08/20 07:28:59;;;;;;;4.55;3.35;;;;;;;;;;4938026;29;20467;-81
2021/08/20 07:31:25;;;;;;;6.70;3.20;;;;;;;;;;4938032;29;20067;-80
2021/08/20 07:33:52;;;;;;;6.45;3.55;;;;;;;;;;4938041;29;20035;-77
2021/08/20 07:36:17;;;;;;;4.60;3.05;;;;;;;;;;4938198;29;20035;-78
2021/08/20 07:38:42;;;;;;;7.60;3.22;;;;;;;;;;4937774;29;20055;-81
2021/08/20 07:41:08;;;;;;;5.50;3.20;;;;;;;;;;4937879;29;20359;-78
2021/08/20 07:43:33;;;;;;;4.32;3.38;;;;;;;;;;4920853;29;20396;-77
2021/08/20 07:45:59;;;;;;;5.82;3.10;;;;;;;;;;4937751;29;20065;-77
2021/08/20 07:48:25;;;;;;;5.03;2.97;;;;;;;;;;4937711;29;20467;-77
2021/08/20 07:50:50;;;;;;;6.03;3.40;;;;;;;;;;4920634;29;20042;-78
2021/08/20 07:53:16;;;;;;;3.95;3.25;;;;;;;;;;4937959;29;20036;-78
2021/08/20 07:55:45;;;;;;;4.03;2.97;;;;;;;;;;4937687;29;20063;-79
2021/08/20 07:58:11;;;;;;;4.43;3.17;;;;;;;;;;4937569;29;20118;-78
2021/08/20 08:00:36;;;;;;;3.50;3.20;;;;;;;;;;4920472;29;20075;-77
2021/08/20 08:03:02;;;;;;;3.67;3.00;;;;;;;;;;4937749;29;20032;-78
2021/08/20 08:05:28;;;;;;;5.82;2.97;;;;;;;;;;4937424;29;20501;-78
2021/08/20 08:07:55;;;;;;;5.32;2.58;;;;;;;;;;4937598;29;20085;-77
2021/08/20 08:10:21;;;;;;;5.32;3.40;;;;;;;;;;4937403;29;20086;-77
2021/08/20 08:12:47;;;;;;;6.03;3.50;;;;;;;;;;4937558;29;20411;-81
2021/08/20 08:15:13;;;;;;;6.38;3.17;;;;;;;;;;4937178;29;20066;-77
2021/08/20 08:17:39;;;;;;;6.38;3.22;;;;;;;;;;4919681;29;20048;-77
2021/08/20 08:20:07;;;;;;;5.88;2.88;;;;;;;;;;4937136;29;20546;-78
2021/08/20 08:22:33;;;;;;;6.28;3.28;;;;;;;;;;4937562;29;20023;-78
2021/08/20 08:24:58;;;;;;;6.32;2.80;;;;;;;;;;4937325;29;20032;-76
2021/08/20 08:27:24;;;;;;;3.80;3.05;;;;;;;;;;4937021;29;20055;-79
2021/08/20 08:29:49;;;;;;;4.68;2.85;;;;;;;;;;4936899;29;20541;-78
2021/08/20 08:32:14;;;;;;;4.07;3.10;;;;;;;;;;4937074;29;20031;-82
2021/08/20 08:34:40;;;;;;;7.15;2.85;;;;;;;;;;4936991;29;20031;-84
2021/08/20 08:37:06;;;;;;;5.90;3.17;;;;;;;;;;4936919;29;20038;-84
2021/08/20 08:39:32;;;;;;;6.15;2.95;;;;;;;;;;4937136;29;20119;-83
2021/08/20 08:41:58;;;;;;;5.47;3.38;;;;;;;;;;4937000;29;20526;-80
2021/08/20 08:44:23;;;;;;;3.80;3.00;;;;;;;;;;4936754;29;20055;-80
2021/08/20 08:46:50;;;;;;;3.80;2.47;;;;;;;;;;4936730;29;20513;-79
2021/08/20 08:49:20;;;;;;;4.57;2.75;;;;;;;;;;4937013;29;20107;-79
2021/08/20 08:51:45;;;;;;;3.40;2.92;;;;;;;;;;4936670;29;20031;-79
2021/08/20 08:54:14;;;;;;;3.40;3.10;;;;;;;;;;4936226;29;20039;-79
2021/08/20 08:56:47;;;;;;;5.53;3.15;;;;;;;;;;4936771;29;20083;-80
2021/08/20 08:59:13;;;;;;;6.13;3.00;;;;;;;;;;4936462;29;20039;-80
2021/08/20 09:01:39;;;;;;;10.75;2.85;;;;;;;;;;4936660;29;20490;-80
2021/08/20 09:04:12;;;;;;;4.25;2.78;;;;;;;;;;4936563;29;20040;-80
2021/08/20 09:06:39;;;;;;;7.22;3.72;;;;;;;;;;4936699;29;20028;-80
2021/08/20 09:09:10;;;;;;;6.57;3.47;;;;;;;;;;4936326;29;20062;-87
2021/08/20 09:11:36;;;;;;;6.35;3.17;;;;;;;;;;4936438;29;20494;-78
2021/08/20 09:14:02;;;;;;;5.00;3.10;;;;;;;;;;4919408;29;20059;-79
2021/08/20 09:16:38;;;;;;;2.90;2.60;;;;;;;;;;4936495;29;20107;-78
2021/08/20 09:19:09;;;;;;;5.18;2.92;;;;;;;;;;4936509;29;20114;-79
2021/08/20 09:21:34;;;;;;;4.80;3.05;;;;;;;;;;4936524;29;20027;-79
2021/08/20 09:24:00;;;;;;;4.78;2.80;;;;;;;;;;4936280;29;20464;-78
2021/08/20 09:26:25;;;;;;;3.75;3.10;;;;;;;;;;4936628;29;20036;-78
2021/08/20 09:28:51;;;;;;;4.90;3.13;;;;;;;;;;4918918;29;20038;-78
2021/08/20 09:31:16;;;;;;;8.40;3.05;;;;;;;;;;4936369;29;20027;-81
2021/08/20 09:33:42;;;;;;;4.80;2.95;;;;;;;;;;4936095;29;20035;-79
2021/08/20 09:36:10;;;;;;;4.53;2.60;;;;;;;;;;4936370;29;20051;-77
2021/08/20 09:38:40;;;;;;;5.72;2.67;;;;;;;;;;4935839;29;20039;-79
2021/08/20 09:41:12;;;;;;;6.50;3.28;;;;;;;;;;4936182;29;20042;-77
2021/08/20 09:43:39;;;;;;;6.13;3.13;;;;;;;;;;4936010;29;20537;-77
2021/08/20 09:46:11;;;;;;;4.07;2.65;;;;;;;;;;4936347;29;20031;-77
2021/08/20 09:48:59;;;;;;;4.32;2.83;;;;;;;;;;4935895;29;20031;-77
2021/08/20 09:51:31;;;;;;;5.25;3.00;;;;;;;;;;4919212;29;20122;-78
2021/08/20 09:54:04;;;;;;;5.45;2.75;;;;;;;;;;4936039;29;20127;-76
2021/08/20 09:56:30;;;;;;;3.35;2.58;;;;;;;;;;4935946;29;20475;-77
2021/08/20 09:58:59;;;;;;;3.60;2.80;;;;;;;;;;4935943;29;20031;-77
2021/08/20 10:01:26;;;;;;;5.28;3.22;;;;;;;;;;4936203;29;20034;-77
2021/08/20 10:03:52;;;;;;;3.85;2.95;;;;;;;;;;4936041;29;20053;-77
2021/08/20 10:06:18;;;;;;;4.03;2.67;;;;;;;;;;4939311;29;20481;-77
2021/08/20 10:08:44;;;;;;;4.70;3.05;;;;;;;;;;4939735;29;20031;-77
2021/08/20 10:11:11;;;;;;;3.30;2.90;;;;;;;;;;4939511;29;20038;-77
2021/08/20 10:13:36;;;;;;;3.75;2.60;;;;;;;;;;4939705;29;20036;-75
2021/08/20 10:16:03;;;;;;;4.70;3.10;;;;;;;;;;4939464;29;20035;-77
2021/08/20 10:18:30;;;;;;;3.70;3.10;;;;;;;;;;4939063;29;20099;-77
2021/08/20 10:20:56;;;;;;;3.53;2.70;;;;;;;;;;4939561;29;20027;-77
2021/08/20 10:23:22;;;;;;;3.35;2.75;;;;;;;;;;4938976;29;20450;-79
2021/08/20 10:25:48;;;;;;;3.83;2.83;;;;;;;;;;4939488;29;20032;-77
2021/08/20 10:28:14;;;;;;;5.78;2.53;;;;;;;;;;4939579;29;20381;-78
2021/08/20 10:30:44;;;;;;;3.53;2.92;;;;;;;;;;4939315;29;20036;-78
2021/08/20 10:33:10;;;;;;;4.45;2.70;;;;;;;;;;4938918;29;20045;-78
2021/08/20 10:35:53;;;;;;;3.53;3.08;;;;;;;;;;4939516;29;20110;-78
2021/08/20 10:38:39;;;;;;;7.40;2.85;;;;;;;;;;4938975;29;20451;-79
2021/08/20 10:41:16;;;;;;;4.95;3.10;;;;;;;;;;4939064;29;20043;-77
2021/08/20 10:43:58;;;;;;;2.90;2.30;;;;;;;;;;4921765;29;20379;-77
2021/08/20 10:46:33;;;;;;;4.70;2.85;;;;;;;;;;4921914;29;20023;-77
2021/08/20 10:49:22;;;;;;;2.63;2.30;;;;;;;;;;4938773;29;20070;-77
2021/08/20 10:51:53;;;;;;;3.85;2.78;;;;;;;;;;4938639;29;20032;-79
2021/08/20 10:54:40;;;;;;;3.30;3.00;;;;;;;;;;4939026;29;20411;-78
2021/08/20 10:57:34;;;;;;;6.35;2.83;;;;;;;;;;4921422;29;20027;-78
2021/08/20 11:00:02;;;;;;;3.90;2.88;;;;;;;;;;4938440;29;20107;-78
2021/08/20 11:02:27;;;;;;;3.58;2.80;;;;;;;;;;4938403;29;20024;-79
2021/08/20 11:05:06;;;;;;;3.33;2.70;;;;;;;;;;4938645;29;20051;-81
2021/08/20 11:07:34;;;;;;;2.17;1.98;;;;;;;;;;4938636;29;20424;-78
2021/08/20 11:10:20;;;;;;;3.10;2.30;;;;;;;;;;4938181;29;20031;-81
2021/08/20 11:12:52;;;;;;;6.65;2.60;;;;;;;;;;4938224;29;20203;-78
2021/08/20 11:15:20;;;;;;;3.15;2.53;;;;;;;;;;4938267;29;20031;-78
2021/08/20 11:17:50;;;;;;;2.95;2.40;;;;;;;;;;4938375;29;20042;-78
2021/08/20 11:20:37;;;;;;;2.92;2.50;;;;;;;;;;4938369;29;20056;-78
2021/08/20 11:23:12;;;;;;;6.30;3.22;;;;;;;;;;4938278;29;20378;-79
2021/08/20 11:25:50;;;;;;;4.53;2.80;;;;;;;;;;4938528;29;20455;-78
2021/08/20 11:28:25;;;;;;;4.05;2.50;;;;;;;;;;4938187;29;20475;-79
2021/08/20 11:31:11;;;;;;;3.13;2.05;;;;;;;;;;4937973;29;20047;-79
2021/08/20 11:33:37;;;;;;;2.90;2.50;;;;;;;;;;4938309;29;20091;-83
2021/08/20 11:36:04;;;;;;;4.00;2.33;;;;;;;;;;4938450;29;20459;-85
2021/08/20 11:38:34;;;;;;;3.60;2.33;;;;;;;;;;4937919;29;20104;-81
2021/08/20 11:41:04;;;;;;;5.32;2.50;;;;;;;;;;4938097;29;20023;-82
2021/08/20 11:43:31;;;;;;;3.50;2.40;;;;;;;;;;4938312;29;20091;-82
2021/08/20 11:46:06;;;;;;;5.13;2.40;;;;;;;;;;4937879;29;20032;-85
2021/08/20 11:48:41;;;;;;;4.70;3.00;;;;;;;;;;4937831;29;20027;-83
2021/08/20 12:11:42;;;;;;;4.57;2.33;;;;;;;;;;4935787;29;20052;-85
2021/08/20 12:14:17;;;;;;;5.38;2.65;;;;;;;;;;4937554;29;20032;-85
2021/08/20 12:16:49;;;;;;;4.22;2.50;;;;;;;;;;4937228;29;20028;-86
2021/08/20 12:19:14;;;;;;;5.82;2.70;;;;;;;;;;4937320;29;20028;-86
2021/08/20 12:21:44;;;;;;;2.92;2.13;;;;;;;;;;4937083;29;20028;-86
2021/08/20 12:24:09;;;;;;;3.53;2.50;;;;;;;;;;4937197;29;20027;-83
2021/08/20 12:26:35;;;;;;;3.42;2.33;;;;;;;;;;4937281;29;20084;-83
2021/08/20 12:29:12;;;;;;;5.50;2.15;;;;;;;;;;4936642;29;20036;-82
2021/08/20 12:31:38;;;;;;;3.45;2.28;;;;;;;;;;4937477;29;20458;-89
2021/08/20 12:34:05;;;;;;;5.38;2.15;;;;;;;;;;4937443;29;20051;-91
2021/08/20 12:36:31;;;;;;;4.13;2.53;;;;;;;;;;4937342;29;20043;-82
2021/08/20 12:39:13;;;;;;;5.75;2.80;;;;;;;;;;4936828;29;20020;-81
2021/08/20 12:41:40;;;;;;;6.40;2.75;;;;;;;;;;4924310;29;20558;-85
2021/08/20 12:44:07;;;;;;;5.45;2.53;;;;;;;;;;4917960;29;20067;-82
2021/08/20 12:46:34;;;;;;;5.10;2.38;;;;;;;;;;4917800;29;20028;-83
2021/08/20 12:49:05;;;;;;;2.90;2.20;;;;;;;;;;4917692;29;20032;-82
2021/08/20 12:51:35;;;;;;;5.03;2.60;;;;;;;;;;4918073;29;20468;-84
2021/08/20 12:54:06;;;;;;;4.32;2.60;;;;;;;;;;4917721;29;20032;-83
2021/08/20 12:56:40;;;;;;;4.10;2.47;;;;;;;;;;4900596;29;20024;-82
2021/08/20 12:59:08;;;;;;;4.78;2.55;;;;;;;;;;4917764;29;20040;-81
2021/08/20 13:01:35;;;;;;;4.33;2.43;;;;;;;;;;4917664;29;20028;-82
2021/08/20 13:04:00;;;;;;;4.60;2.40;;;;;;;;;;4917678;29;20028;-82
2021/08/20 13:06:26;;;;;;;4.55;2.25;;;;;;;;;;4917540;29;20032;-82
2021/08/20 13:08:52;;;;;;;3.45;2.40;;;;;;;;;;4917614;29;20420;-85
2021/08/20 13:11:17;;;;;;;3.28;2.63;;;;;;;;;;4917423;29;20040;-84
2021/08/20 13:13:43;;;;;;;4.00;2.72;;;;;;;;;;4917266;29;20032;-81
2021/08/20 13:16:09;;;;;;;3.70;2.50;;;;;;;;;;4917480;29;20075;-82
2021/08/20 13:18:34;;;;;;;4.50;2.50;;;;;;;;;;4926262;29;20110;-81
2021/08/20 13:21:01;;;;;;;2.88;2.25;;;;;;;;;;4936242;29;20435;-85
2021/08/20 13:23:27;;;;;;;4.07;2.00;;;;;;;;;;4936527;29;20079;-84
2021/08/20 13:25:53;;;;;;;5.68;2.10;;;;;;;;;;4936574;29;20028;-82
2021/08/20 13:28:18;;;;;;;2.67;2.47;;;;;;;;;;4936322;29;20020;-83
2021/08/20 13:30:44;;;;;;;2.92;2.13;;;;;;;;;;4936450;29;20122;-82
2021/08/20 13:33:10;;;;;;;4.03;2.42;;;;;;;;;;4918962;29;20031;-82
2021/08/20 13:35:36;;;;;;;2.40;2.00;;;;;;;;;;4936198;29;20039;-82
2021/08/20 13:38:02;;;;;;;3.45;2.60;;;;;;;;;;4936306;29;20028;-83
2021/08/20 13:40:31;;;;;;;3.38;2.40;;;;;;;;;;4940154;29;20024;-83
2021/08/20 13:43:12;;;;;;;3.05;2.20;;;;;;;;;;4940096;29;20494;-83
2021/08/20 13:45:45;;;;;;;2.92;2.20;;;;;;;;;;4940183;29;20042;-84
2021/08/20 13:48:12;;;;;;;4.82;2.33;;;;;;;;;;4939862;29;20032;-83
2021/08/20 13:50:38;;;;;;;3.20;2.20;;;;;;;;;;4940102;29;20351;-83
2021/08/20 13:53:05;;;;;;;3.67;2.42;;;;;;;;;;4939959;29;20492;-83
2021/08/20 13:55:33;;;;;;;2.35;1.85;;;;;;;;;;4940198;29;20423;-84
2021/08/20 13:57:58;;;;;;;6.47;2.10;;;;;;;;;;4939802;29;20028;-83
2021/08/20 14:00:24;;;;;;;3.25;2.75;;;;;;;;;;4922684;29;20462;-84
2021/08/20 14:02:50;;;;;;;2.40;2.17;;;;;;;;;;4939915;29;20043;-83
2021/08/20 14:05:16;;;;;;;3.92;2.20;;;;;;;;;;4940013;29;20059;-83
2021/08/20 14:07:42;;;;;;;2.42;1.83;;;;;;;;;;4939751;29;20514;-83
2021/08/20 14:10:07;;;;;;;2.63;2.30;;;;;;;;;;4922606;29;20118;-83
2021/08/20 14:12:33;;;;;;;3.30;2.30;;;;;;;;;;4931130;29;20507;-83
2021/08/20 14:14:58;;;;;;;2.88;2.38;;;;;;;;;;4936863;29;20028;-81
2021/08/20 14:17:24;;;;;;;3.42;2.55;;;;;;;;;;4939424;29;20039;-82
2021/08/20 14:19:49;;;;;;;3.55;2.13;;;;;;;;;;4922580;29;20028;-83
2021/08/20 14:22:14;;;;;;;5.10;2.33;;;;;;;;;;4939442;29;20031;-82
2021/08/20 14:24:40;;;;;;;2.55;2.33;;;;;;;;;;4939477;29;20050;-82
2021/08/20 14:27:06;;;;;;;5.45;2.53;;;;;;;;;;4939408;29;20477;-85
2021/08/20 14:29:31;;;;;;;4.72;2.50;;;;;;;;;;4939580;29;20028;-83
2021/08/20 14:31:57;;;;;;;3.13;2.60;;;;;;;;;;4939292;29;20070;-82
2021/08/20 14:34:22;;;;;;;3.53;2.50;;;;;;;;;;4939278;29;20032;-83
2021/08/20 14:36:48;;;;;;;3.15;2.30;;;;;;;;;;4938951;29;20114;-81
2021/08/20 14:39:13;;;;;;;3.45;2.53;;;;;;;;;;4939085;29;20024;-84
2021/08/20 14:41:39;;;;;;;3.42;2.50;;;;;;;;;;4939034;29;20112;-82
2021/08/20 14:44:05;;;;;;;2.90;2.60;;;;;;;;;;4916331;29;20032;-82
2021/08/20 14:46:30;;;;;;;3.05;2.60;;;;;;;;;;4927926;29;20080;-82
2021/08/20 14:48:56;;;;;;;4.60;2.42;;;;;;;;;;4938870;29;20031;-82
2021/08/20 14:51:21;;;;;;;3.85;2.50;;;;;;;;;;4938245;29;20393;-82
2021/08/20 14:53:47;;;;;;;3.95;2.78;;;;;;;;;;4923219;29;20035;-83
2021/08/20 14:56:12;;;;;;;3.90;2.50;;;;;;;;;;4919863;29;20028;-82
2021/08/20 14:58:37;;;;;;;2.85;2.10;;;;;;;;;;4920159;29;20036;-82
2021/08/20 15:01:03;;;;;;;4.60;2.30;;;;;;;;;;4925743;29;20035;-83
2021/08/20 15:03:28;;;;;;;2.92;2.30;;;;;;;;;;4926573;29;20043;-83
2021/08/20 15:05:54;;;;;;;3.45;2.20;;;;;;;;;;4911260;29;20024;-82
2021/08/20 15:08:19;;;;;;;2.80;2.33;;;;;;;;;;4919338;29;20463;-82
2021/08/20 15:10:45;;;;;;;3.35;2.83;;;;;;;;;;4919008;29;20052;-82
2021/08/20 15:13:10;;;;;;;4.55;2.55;;;;;;;;;;4919413;29;20047;-82
2021/08/20 15:15:39;;;;;;;4.25;2.65;;;;;;;;;;4919231;29;20060;-82
2021/08/20 15:18:05;;;;;;;2.78;2.30;;;;;;;;;;4919297;29;20079;-82
2021/08/20 15:20:30;;;;;;;3.42;2.45;;;;;;;;;;4919404;29;20068;-80
2021/08/20 15:22:56;;;;;;;4.38;2.20;;;;;;;;;;4919204;29;20044;-82
2021/08/20 15:25:23;;;;;;;3.17;2.38;;;;;;;;;;4919278;29;20531;-82
2021/08/20 15:27:48;;;;;;;3.03;2.10;;;;;;;;;;4919246;29;20020;-81
2021/08/20 15:30:14;;;;;;;3.05;2.60;;;;;;;;;;4918730;29;20039;-82
2021/08/20 15:32:40;;;;;;;3.70;2.40;;;;;;;;;;4919281;29;20463;-83
2021/08/20 15:35:07;;;;;;;5.30;2.83;;;;;;;;;;4919469;29;20020;-83
2021/08/20 15:37:34;;;;;;;3.88;2.95;;;;;;;;;;4938120;29;20051;-82
2021/08/20 15:39:59;;;;;;;3.92;2.72;;;;;;;;;;4937699;29;20087;-83
2021/08/20 15:42:27;;;;;;;4.93;2.42;;;;;;;;;;4937993;29;20054;-81
2021/08/20 15:44:53;;;;;;;4.53;2.35;;;;;;;;;;4937685;29;20075;-81
2021/08/20 15:47:18;;;;;;;4.57;2.20;;;;;;;;;;4937525;29;20027;-81
2021/08/20 15:49:46;;;;;;;2.90;2.20;;;;;;;;;;4937676;29;20031;-81
2021/08/20 15:52:11;;;;;;;2.72;2.22;;;;;;;;;;4937589;29;20042;-83
2021/08/20 15:54:37;;;;;;;4.40;2.55;;;;;;;;;;4937803;29;20023;-82
2021/08/20 15:57:03;;;;;;;4.90;2.67;;;;;;;;;;4937443;29;20032;-82
2021/08/20 15:59:29;;;;;;;3.38;2.58;;;;;;;;;;4937484;29;20478;-82
2021/08/20 16:01:54;;;;;;;3.88;2.30;;;;;;;;;;4936695;29;20051;-82
2021/08/20 16:04:19;;;;;;;3.25;2.35;;;;;;;;;;4937213;29;20063;-81
2021/08/20 16:06:45;;;;;;;2.72;2.20;;;;;;;;;;4937193;29;20039;-83
2021/08/20 16:09:10;;;;;;;2.40;2.08;;;;;;;;;;4937495;29;20024;-81
2021/08/20 16:11:36;;;;;;;2.40;1.90;;;;;;;;;;4918313;29;20052;-81
2021/08/20 16:14:02;;;;;;;4.20;2.28;;;;;;;;;;4917969;29;20119;-83
2021/08/20 16:16:28;;;;;;;4.35;2.33;;;;;;;;;;4918419;29;20493;-83
2021/08/20 16:18:53;;;;;;;2.85;2.22;;;;;;;;;;4918317;29;20091;-84
2021/08/20 16:21:21;;;;;;;3.40;2.55;;;;;;;;;;4918372;29;20032;-84
2021/08/20 16:23:47;;;;;;;3.97;2.88;;;;;;;;;;4901087;29;20029;-84
2021/08/20 16:26:12;;;;;;;3.63;2.50;;;;;;;;;;4918097;29;20032;-84
2021/08/20 16:28:38;;;;;;;4.30;3.00;;;;;;;;;;4917764;29;20028;-81
2021/08/20 16:31:03;;;;;;;3.67;2.78;;;;;;;;;;4917931;29;20029;-85
2021/08/20 16:33:29;;;;;;;2.92;2.30;;;;;;;;;;4917813;29;20494;-84
2021/08/20 16:35:54;;;;;;;3.33;2.50;;;;;;;;;;4918189;29;20062;-81
2021/08/20 16:38:20;;;;;;;3.13;2.25;;;;;;;;;;4917687;29;20427;-83
2021/08/20 16:40:46;;;;;;;5.50;2.80;;;;;;;;;;4917748;29;20028;-82
2021/08/20 16:43:12;;;;;;;3.92;2.45;;;;;;;;;;4917598;29;20027;-85
2021/08/20 16:45:37;;;;;;;4.57;3.00;;;;;;;;;;4917821;29;20388;-82
2021/08/20 16:48:04;;;;;;;4.47;2.83;;;;;;;;;;4917554;29;20032;-82
2021/08/20 16:50:32;;;;;;;4.43;2.80;;;;;;;;;;4917695;29;20059;-83
2021/08/20 16:52:58;;;;;;;3.08;2.60;;;;;;;;;;4917778;29;20032;-84
2021/08/20 16:55:23;;;;;;;3.97;2.40;;;;;;;;;;4917662;29;20039;-81
2021/08/20 16:57:48;;;;;;;4.63;2.50;;;;;;;;;;4917504;29;20028;-83
2021/08/20 17:00:14;;;;;;;5.50;3.13;;;;;;;;;;4917336;29;20034;-82
2021/08/20 17:02:40;;;;;;;4.85;2.85;;;;;;;;;;4917605;29;20075;-83
2021/08/20 17:05:06;;;;;;;3.35;2.17;;;;;;;;;;4917731;29;20091;-81
2021/08/20 17:07:31;;;;;;;3.50;2.47;;;;;;;;;;4917504;29;20032;-83
2021/08/20 17:09:58;;;;;;;4.25;2.60;;;;;;;;;;4922982;29;20034;-84
2021/08/20 17:12:23;;;;;;;3.17;2.80;;;;;;;;;;4936272;29;20053;-85
2021/08/20 17:14:49;;;;;;;4.38;2.67;;;;;;;;;;4936587;29;20110;-86
2021/08/20 17:17:14;;;;;;;5.55;3.13;;;;;;;;;;4919459;29;20028;-88
2021/08/20 17:19:40;;;;;;;4.53;2.90;;;;;;;;;;4936730;29;20035;-88
2021/08/20 17:22:07;;;;;;;4.95;3.92;;;;;;;;;;4936446;29;20083;-89
2021/08/20 17:24:34;;;;;;;3.88;3.22;;;;;;;;;;4936274;29;20038;-85
2021/08/20 17:27:01;;;;;;;4.63;3.00;;;;;;;;;;4936029;29;20028;-90
2021/08/20 17:29:26;;;;;;;4.07;2.97;;;;;;;;;;4936472;29;20020;-87
2021/08/20 17:31:52;;;;;;;4.78;2.65;;;;;;;;;;4936262;29;20032;-86
2021/08/20 17:34:17;;;;;;;4.38;2.40;;;;;;;;;;4936049;29;20049;-84
2021/08/20 17:36:43;;;;;;;4.82;3.20;;;;;;;;;;4935995;29;20028;-82
2021/08/20 17:39:10;;;;;;;3.58;2.47;;;;;;;;;;4936076;29;20059;-79
2021/08/20 17:41:36;;;;;;;7.15;2.88;;;;;;;;;;4936131;29;20020;-82
2021/08/20 17:44:01;;;;;;;4.05;2.60;;;;;;;;;;4935928;29;20039;-86
2021/08/20 17:46:26;;;;;;;4.85;2.53;;;;;;;;;;4918909;29;20028;-84
2021/08/20 17:48:52;;;;;;;4.10;2.70;;;;;;;;;;4935945;29;20083;-85
2021/08/20 17:51:17;;;;;;;4.20;2.50;;;;;;;;;;4935927;29;20081;-85
2021/08/20 17:53:43;;;;;;;3.53;2.80;;;;;;;;;;4936005;29;20083;-87
2021/08/20 17:56:08;;;;;;;4.75;3.30;;;;;;;;;;4935764;29;20546;-81
2021/08/20 17:58:34;;;;;;;3.22;2.92;;;;;;;;;;4935895;29;20035;-83
2021/08/20 18:01:00;;;;;;;5.75;2.97;;;;;;;;;;4935904;29;20082;-84
2021/08/20 18:03:27;;;;;;;4.30;3.10;;;;;;;;;;4935631;29;20158;-84
2021/08/20 18:05:53;;;;;;;4.70;3.95;;;;;;;;;;4935847;29;20043;-81
2021/08/20 18:08:20;;;;;;;6.53;3.55;;;;;;;;;;4935619;29;20123;-85
2021/08/20 18:10:45;;;;;;;5.10;4.15;;;;;;;;;;4923126;29;20142;-82
2021/08/20 18:13:11;;;;;;;6.20;3.83;;;;;;;;;;4916696;29;20115;-84
2021/08/20 18:15:37;;;;;;;5.65;3.53;;;;;;;;;;4917041;29;20436;-84
2021/08/20 18:18:02;;;;;;;4.75;2.80;;;;;;;;;;4916600;29;20039;-85
2021/08/20 18:20:28;;;;;;;3.55;2.78;;;;;;;;;;4916896;29;20025;-81
2021/08/20 18:22:54;;;;;;;3.85;2.88;;;;;;;;;;4899718;29;20056;-84
2021/08/20 18:25:20;;;;;;;4.20;2.80;;;;;;;;;;4900102;29;20123;-82
2021/08/20 18:27:47;;;;;;;5.07;2.50;;;;;;;;;;4920236;29;20028;-82
2021/08/20 18:30:13;;;;;;;5.00;3.50;;;;;;;;;;4919936;29;20032;-85
2021/08/20 18:32:39;;;;;;;4.22;2.75;;;;;;;;;;4903094;29;20416;-81
2021/08/20 18:35:05;;;;;;;4.05;3.20;;;;;;;;;;4920104;29;20031;-81
2021/08/20 18:37:31;;;;;;;3.53;2.95;;;;;;;;;;4919927;29;20028;-82
2021/08/20 18:39:57;;;;;;;5.10;2.75;;;;;;;;;;4919711;29;20107;-84
2021/08/20 18:42:22;;;;;;;2.88;2.60;;;;;;;;;;4920202;29;20132;-86
2021/08/20 18:44:49;;;;;;;3.25;2.67;;;;;;;;;;4920100;29;20527;-81
2021/08/20 18:47:15;;;;;;;5.10;2.65;;;;;;;;;;4902879;29;20028;-81
2021/08/20 18:49:40;;;;;;;5.00;2.63;;;;;;;;;;4902626;29;20452;-83
2021/08/20 18:52:06;;;;;;;3.05;2.72;;;;;;;;;;4919728;29;20032;-82
2021/08/20 18:54:35;;;;;;;3.53;2.50;;;;;;;;;;4919563;29;20032;-84
2021/08/20 18:57:01;;;;;;;3.95;3.08;;;;;;;;;;4919619;29;20028;-80
2021/08/20 18:59:27;;;;;;;4.85;2.50;;;;;;;;;;4919698;29;20032;-80
2021/08/20 19:01:52;;;;;;;6.47;3.78;;;;;;;;;;4919737;29;20444;-85
2021/08/20 19:04:17;;;;;;;4.28;3.13;;;;;;;;;;4919501;29;20032;-82
2021/08/20 19:06:45;;;;;;;3.78;2.65;;;;;;;;;;4938088;29;20031;-82
2021/08/20 19:09:11;;;;;;;6.80;2.97;;;;;;;;;;4938611;29;20036;-81
2021/08/20 19:11:37;;;;;;;4.22;3.15;;;;;;;;;;4938414;29;20099;-81
2021/08/20 19:14:03;;;;;;;3.38;2.67;;;;;;;;;;4938628;29;20427;-80
2021/08/20 19:16:28;;;;;;;3.55;2.60;;;;;;;;;;4938366;29;20197;-81
2021/08/20 19:18:56;;;;;;;3.58;2.75;;;;;;;;;;4938387;29;20028;-81
2021/08/20 19:21:21;;;;;;;5.70;2.80;;;;;;;;;;4938326;29;20542;-81
2021/08/20 19:23:47;;;;;;;3.28;2.72;;;;;;;;;;4938356;29;20051;-81
2021/08/20 19:26:12;;;;;;;3.10;2.67;;;;;;;;;;4938415;29;20028;-83
2021/08/20 19:28:37;;;;;;;5.20;3.03;;;;;;;;;;4938348;29;20027;-83
2021/08/20 19:31:03;;;;;;;5.50;3.03;;;;;;;;;;4938311;29;20039;-82
2021/08/20 19:33:28;;;;;;;6.18;3.97;;;;;;;;;;4938297;29;20075;-84
2021/08/20 19:35:54;;;;;;;4.22;3.50;;;;;;;;;;4937882;29;20027;-86
2021/08/20 19:38:19;;;;;;;4.90;2.80;;;;;;;;;;4920796;29;20039;-80
2021/08/20 19:40:46;;;;;;;3.88;2.90;;;;;;;;;;4938228;29;20028;-80
2021/08/20 19:43:12;;;;;;;4.07;2.75;;;;;;;;;;4937960;29;20027;-80
2021/08/20 19:45:38;;;;;;;5.30;2.95;;;;;;;;;;4937846;29;20028;-79
2021/08/20 19:48:04;;;;;;;5.15;3.13;;;;;;;;;;4937864;29;20091;-78
2021/08/20 19:50:30;;;;;;;5.53;3.22;;;;;;;;;;4937731;29;20099;-80
2021/08/20 19:52:55;;;;;;;4.05;2.90;;;;;;;;;;4920526;29;20052;-77
2021/08/20 19:55:21;;;;;;;5.97;3.10;;;;;;;;;;4937713;29;20095;-83
2021/08/20 19:57:46;;;;;;;5.40;3.30;;;;;;;;;;4937668;29;20043;-78
2021/08/20 20:00:12;;;;;;;5.60;3.17;;;;;;;;;;4937611;29;20020;-80
2021/08/20 20:02:39;;;;;;;6.28;3.42;;;;;;;;;;4937612;29;20123;-79
2021/08/20 20:05:05;;;;;;;4.57;3.50;;;;;;;;;;4931957;29;20024;-82
2021/08/20 20:07:33;;;;;;;4.03;2.78;;;;;;;;;;4903431;29;20035;-82
2021/08/20 20:10:00;;;;;;;5.60;3.15;;;;;;;;;;4908996;29;20099;-82
2021/08/20 20:12:26;;;;;;;3.70;2.95;;;;;;;;;;4918410;29;20428;-80
2021/08/20 20:14:54;;;;;;;3.03;2.72;;;;;;;;;;4933948;29;20024;-81
2021/08/20 20:17:20;;;;;;;3.20;2.60;;;;;;;;;;4937334;29;20395;-83
2021/08/20 20:19:45;;;;;;;4.20;2.78;;;;;;;;;;4937813;29;20093;-82
2021/08/20 20:22:10;;;;;;;3.85;2.97;;;;;;;;;;4930678;29;20024;-83
2021/08/20 20:24:36;;;;;;;4.93;2.90;;;;;;;;;;4918182;29;20028;-81
2021/08/20 20:27:01;;;;;;;4.10;3.08;;;;;;;;;;4917864;29;20028;-81
2021/08/20 20:29:27;;;;;;;4.72;2.85;;;;;;;;;;4917983;29;20072;-83
2021/08/20 20:31:52;;;;;;;3.70;3.00;;;;;;;;;;4918274;29;20064;-83
2021/08/20 20:34:17;;;;;;;5.32;3.70;;;;;;;;;;4900923;29;20035;-81
2021/08/20 20:36:46;;;;;;;4.05;3.00;;;;;;;;;;4917687;29;20502;-84
2021/08/20 20:39:14;;;;;;;5.35;2.70;;;;;;;;;;4923639;29;20044;-83
2021/08/20 20:41:40;;;;;;;3.23;2.77;;;;;;;;;;4936859;29;20550;-84
2021/08/20 20:44:05;;;;;;;3.50;2.97;;;;;;;;;;4928173;29;20294;-83
2021/08/20 20:46:31;;;;;;;4.28;2.95;;;;;;;;;;4931151;29;20035;-84
2021/08/20 20:48:56;;;;;;;4.68;2.80;;;;;;;;;;4936041;29;20030;-83
2021/08/20 20:51:22;;;;;;;4.75;2.85;;;;;;;;;;4936383;29;20024;-82
2021/08/20 20:53:47;;;;;;;4.15;3.17;;;;;;;;;;4936630;29;20035;-84
2021/08/20 20:56:13;;;;;;;5.22;3.17;;;;;;;;;;4936699;29;20031;-83
2021/08/20 20:58:38;;;;;;;4.25;2.95;;;;;;;;;;4936658;29;20032;-83
2021/08/20 21:01:04;;;;;;;4.82;2.85;;;;;;;;;;4936876;29;20035;-82
2021/08/20 21:03:30;;;;;;;5.05;3.28;;;;;;;;;;4936463;29;20028;-83
2021/08/20 21:05:55;;;;;;;4.53;3.05;;;;;;;;;;4936573;29;20407;-88
2021/08/20 21:08:23;;;;;;;3.45;3.03;;;;;;;;;;4936723;29;20023;-84
2021/08/20 21:10:49;;;;;;;4.03;2.83;;;;;;;;;;4936216;29;20498;-84
2021/08/20 21:13:15;;;;;;;6.32;3.10;;;;;;;;;;4936514;29;20024;-83
2021/08/20 21:15:42;;;;;;;4.40;2.90;;;;;;;;;;4936823;29;20030;-83
2021/08/20 21:18:08;;;;;;;5.78;3.35;;;;;;;;;;4936472;29;20114;-84
2021/08/20 21:20:33;;;;;;;3.63;2.95;;;;;;;;;;4936596;29;20074;-84
2021/08/20 21:22:59;;;;;;;5.07;3.58;;;;;;;;;;4936357;29;20054;-83
2021/08/20 21:25:25;;;;;;;4.03;2.88;;;;;;;;;;4936694;29;20461;-82
2021/08/20 21:27:50;;;;;;;9.65;6.43;;;;;;;;;;4936382;29;20027;-83
2021/08/20 21:30:16;;;;;;;8.20;6.20;;;;;;;;;;4936293;29;20082;-83
2021/08/20 21:32:44;;;;;;;12.40;7.78;;;;;;;;;;4936427;29;20477;-83
2021/08/20 21:35:10;;;;;;;9.73;5.67;;;;;;;;;;4936343;29;20035;-84
2021/08/20 21:37:35;;;;;;;5.93;3.35;;;;;;;;;;4919201;29;20036;-83
2021/08/20 21:40:01;;;;;;;5.60;3.80;;;;;;;;;;4936087;29;20044;-83